sensor_id;sensor_type;location;lat;lon;timestamp;P1;durP1;ratioP1;P2;durP2;ratioP2
40717;SDS011;26405;51.850;-2.246;2022-09-09T00:02:37;7.97;;;3.10;;
40717;SDS011;26405;51.850;-2.246;2022-09-09T00:04:38;6.67;;;3.00;;
40717;SDS011;26405;51.850;-2.246;2022-09-09T00:10:09;8.48;;;3.47;;
40717;SDS011;26405;51.850;-2.246;2022-09-09T00:15:16;7.22;;;2.85;;
40717;SDS011;26405;51.850;-2.246;2022-09-09T00:20:30;7.10;;;2.90;;
40717;SDS011;26405;51.850;-2.246;2022-09-09T00:23:01;8.70;;;3.30;;
40717;SDS011;26405;51.850;-2.246;2022-09-09T00:25:30;9.07;;;3.30;;
40717;SDS011;26405;51.850;-2.246;2022-09-09T00:27:59;8.35;;;3.40;;
40717;SDS011;26405;51.850;-2.246;2022-09-09T00:30:26;10.53;;;4.23;;
40717;SDS011;26405;51.850;-2.246;2022-09-09T00:32:55;9.98;;;3.65;;
40717;SDS011;26405;51.850;-2.246;2022-09-09T00:35:30;9.48;;;3.38;;
40717;SDS011;26405;51.850;-2.246;2022-09-09T00:37:58;9.35;;;3.75;;
40717;SDS011;26405;51.850;-2.246;2022-09-09T00:40:27;7.72;;;3.25;;
40717;SDS011;26405;51.850;-2.246;2022-09-09T00:43:07;6.50;;;3.00;;
40717;SDS011;26405;51.850;-2.246;2022-09-09T00:45:47;9.25;;;2.95;;
40717;SDS011;26405;51.850;-2.246;2022-09-09T00:48:18;7.68;;;3.00;;
40717;SDS011;26405;51.850;-2.246;2022-09-09T00:58:15;6.55;;;2.85;;
40717;SDS011;26405;51.850;-2.246;2022-09-09T01:00:42;7.00;;;3.00;;
40717;SDS011;26405;51.850;-2.246;2022-09-09T01:10:52;7.53;;;2.72;;
40717;SDS011;26405;51.850;-2.246;2022-09-09T01:13:25;11.30;;;3.22;;
40717;SDS011;26405;51.850;-2.246;2022-09-09T01:15:51;5.97;;;2.60;;
40717;SDS011;26405;51.850;-2.246;2022-09-09T01:18:21;5.10;;;2.50;;
40717;SDS011;26405;51.850;-2.246;2022-09-09T01:28:36;9.15;;;3.15;;
40717;SDS011;26405;51.850;-2.246;2022-09-09T01:31:02;8.57;;;3.20;;
40717;SDS011;26405;51.850;-2.246;2022-09-09T01:33:28;7.65;;;2.85;;
40717;SDS011;26405;51.850;-2.246;2022-09-09T01:35:54;7.07;;;3.10;;
40717;SDS011;26405;51.850;-2.246;2022-09-09T01:38:21;5.28;;;3.13;;
40717;SDS011;26405;51.850;-2.246;2022-09-09T01:40:47;7.35;;;3.00;;
40717;SDS011;26405;51.850;-2.246;2022-09-09T01:43:14;7.22;;;2.95;;
40717;SDS011;26405;51.850;-2.246;2022-09-09T01:45:39;6.23;;;3.07;;
40717;SDS011;26405;51.850;-2.246;2022-09-09T01:48:06;5.95;;;3.22;;
40717;SDS011;26405;51.850;-2.246;2022-09-09T01:50:31;7.60;;;2.80;;
40717;SDS011;26405;51.850;-2.246;2022-09-09T01:52:57;6.77;;;2.97;;
40717;SDS011;26405;51.850;-2.246;2022-09-09T01:55:33;7.13;;;3.58;;
40717;SDS011;26405;51.850;-2.246;2022-09-09T02:00:30;4.32;;;2.95;;
40717;SDS011;26405;51.850;-2.246;2022-09-09T02:05:38;9.37;;;3.27;;
40717;SDS011;26405;51.850;-2.246;2022-09-09T02:13:08;6.60;;;3.20;;
40717;SDS011;26405;51.850;-2.246;2022-09-09T02:17:59;6.78;;;3.22;;
40717;SDS011;26405;51.850;-2.246;2022-09-09T02:20:26;7.43;;;3.15;;
40717;SDS011;26405;51.850;-2.246;2022-09-09T02:22:52;6.25;;;3.45;;
40717;SDS011;26405;51.850;-2.246;2022-09-09T02:25:19;12.00;;;3.65;;
40717;SDS011;26405;51.850;-2.246;2022-09-09T02:27:45;7.57;;;3.25;;
40717;SDS011;26405;51.850;-2.246;2022-09-09T02:30:12;7.45;;;3.17;;
40717;SDS011;26405;51.850;-2.246;2022-09-09T02:32:37;7.30;;;3.23;;
40717;SDS011;26405;51.850;-2.246;2022-09-09T02:37:32;8.95;;;3.05;;
40717;SDS011;26405;51.850;-2.246;2022-09-09T02:40:00;7.60;;;3.47;;
40717;SDS011;26405;51.850;-2.246;2022-09-09T02:42:25;8.77;;;3.63;;
40717;SDS011;26405;51.850;-2.246;2022-09-09T02:44:51;8.30;;;3.40;;
40717;SDS011;26405;51.850;-2.246;2022-09-09T02:47:19;8.77;;;3.00;;
40717;SDS011;26405;51.850;-2.246;2022-09-09T02:52:15;6.80;;;3.40;;
40717;SDS011;26405;51.850;-2.246;2022-09-09T02:54:41;6.45;;;3.35;;
40717;SDS011;26405;51.850;-2.246;2022-09-09T02:59:33;9.25;;;3.50;;
40717;SDS011;26405;51.850;-2.246;2022-09-09T03:01:58;5.80;;;3.20;;
40717;SDS011;26405;51.850;-2.246;2022-09-09T03:04:24;9.83;;;3.60;;
40717;SDS011;26405;51.850;-2.246;2022-09-09T03:06:50;9.70;;;3.90;;
40717;SDS011;26405;51.850;-2.246;2022-09-09T03:09:15;8.50;;;3.60;;
40717;SDS011;26405;51.850;-2.246;2022-09-09T03:11:40;7.67;;;3.50;;
40717;SDS011;26405;51.850;-2.246;2022-09-09T03:14:06;7.33;;;3.77;;
40717;SDS011;26405;51.850;-2.246;2022-09-09T03:16:31;9.20;;;3.40;;
40717;SDS011;26405;51.850;-2.246;2022-09-09T03:21:23;6.82;;;3.38;;
40717;SDS011;26405;51.850;-2.246;2022-09-09T03:23:49;8.50;;;3.83;;
40717;SDS011;26405;51.850;-2.246;2022-09-09T03:26:14;8.43;;;3.43;;
40717;SDS011;26405;51.850;-2.246;2022-09-09T03:28:41;13.50;;;3.73;;
40717;SDS011;26405;51.850;-2.246;2022-09-09T03:31:06;6.97;;;3.20;;
40717;SDS011;26405;51.850;-2.246;2022-09-09T03:33:33;7.00;;;3.30;;
40717;SDS011;26405;51.850;-2.246;2022-09-09T03:35:59;8.38;;;3.67;;
40717;SDS011;26405;51.850;-2.246;2022-09-09T03:38:24;12.80;;;4.00;;
40717;SDS011;26405;51.850;-2.246;2022-09-09T03:40:50;9.60;;;3.80;;
40717;SDS011;26405;51.850;-2.246;2022-09-09T03:43:16;8.55;;;3.63;;
40717;SDS011;26405;51.850;-2.246;2022-09-09T03:45:44;8.73;;;3.50;;
40717;SDS011;26405;51.850;-2.246;2022-09-09T03:48:11;6.43;;;3.08;;
40717;SDS011;26405;51.850;-2.246;2022-09-09T03:50:37;6.63;;;3.10;;
40717;SDS011;26405;51.850;-2.246;2022-09-09T03:53:02;7.28;;;3.40;;
40717;SDS011;26405;51.850;-2.246;2022-09-09T03:55:27;8.53;;;3.53;;
40717;SDS011;26405;51.850;-2.246;2022-09-09T03:57:52;9.10;;;3.13;;
40717;SDS011;26405;51.850;-2.246;2022-09-09T04:00:18;9.53;;;3.30;;
40717;SDS011;26405;51.850;-2.246;2022-09-09T04:02:43;14.00;;;3.77;;
40717;SDS011;26405;51.850;-2.246;2022-09-09T04:05:08;8.30;;;3.67;;
40717;SDS011;26405;51.850;-2.246;2022-09-09T04:07:34;8.23;;;3.70;;
40717;SDS011;26405;51.850;-2.246;2022-09-09T04:09:59;10.50;;;3.60;;
40717;SDS011;26405;51.850;-2.246;2022-09-09T04:12:24;6.50;;;3.30;;
40717;SDS011;26405;51.850;-2.246;2022-09-09T04:14:50;9.13;;;3.37;;
40717;SDS011;26405;51.850;-2.246;2022-09-09T04:17:15;8.73;;;3.70;;
40717;SDS011;26405;51.850;-2.246;2022-09-09T04:19:40;7.67;;;3.57;;
40717;SDS011;26405;51.850;-2.246;2022-09-09T04:22:07;8.10;;;3.35;;
40717;SDS011;26405;51.850;-2.246;2022-09-09T04:24:32;9.83;;;3.13;;
40717;SDS011;26405;51.850;-2.246;2022-09-09T04:26:57;8.60;;;3.57;;
40717;SDS011;26405;51.850;-2.246;2022-09-09T04:29:23;8.57;;;3.15;;
40717;SDS011;26405;51.850;-2.246;2022-09-09T04:31:48;8.43;;;3.50;;
40717;SDS011;26405;51.850;-2.246;2022-09-09T04:34:13;8.97;;;3.70;;
40717;SDS011;26405;51.850;-2.246;2022-09-09T04:36:38;7.30;;;3.30;;
40717;SDS011;26405;51.850;-2.246;2022-09-09T04:39:05;6.80;;;3.15;;
40717;SDS011;26405;51.850;-2.246;2022-09-09T04:41:30;6.23;;;3.40;;
40717;SDS011;26405;51.850;-2.246;2022-09-09T04:43:56;10.73;;;3.30;;
40717;SDS011;26405;51.850;-2.246;2022-09-09T04:46:21;10.00;;;3.55;;
40717;SDS011;26405;51.850;-2.246;2022-09-09T04:48:48;10.30;;;3.73;;
40717;SDS011;26405;51.850;-2.246;2022-09-09T04:51:14;8.50;;;3.40;;
40717;SDS011;26405;51.850;-2.246;2022-09-09T04:53:40;8.37;;;3.40;;
40717;SDS011;26405;51.850;-2.246;2022-09-09T04:56:09;10.50;;;3.20;;
40717;SDS011;26405;51.850;-2.246;2022-09-09T04:58:35;7.47;;;2.83;;
40717;SDS011;26405;51.850;-2.246;2022-09-09T05:01:07;12.25;;;3.15;;
40717;SDS011;26405;51.850;-2.246;2022-09-09T05:03:36;9.05;;;3.60;;
40717;SDS011;26405;51.850;-2.246;2022-09-09T05:08:29;9.73;;;3.50;;
40717;SDS011;26405;51.850;-2.246;2022-09-09T05:10:55;8.73;;;3.27;;
40717;SDS011;26405;51.850;-2.246;2022-09-09T05:13:20;11.47;;;3.40;;
40717;SDS011;26405;51.850;-2.246;2022-09-09T05:15:54;6.10;;;2.85;;
40717;SDS011;26405;51.850;-2.246;2022-09-09T05:18:19;8.27;;;3.20;;
40717;SDS011;26405;51.850;-2.246;2022-09-09T05:20:44;9.67;;;3.27;;
40717;SDS011;26405;51.850;-2.246;2022-09-09T05:23:10;9.03;;;3.30;;
40717;SDS011;26405;51.850;-2.246;2022-09-09T05:25:36;9.10;;;2.85;;
40717;SDS011;26405;51.850;-2.246;2022-09-09T05:28:02;11.27;;;3.45;;
40717;SDS011;26405;51.850;-2.246;2022-09-09T05:30:27;9.60;;;3.10;;
40717;SDS011;26405;51.850;-2.246;2022-09-09T05:32:55;10.07;;;3.15;;
40717;SDS011;26405;51.850;-2.246;2022-09-09T05:35:20;7.88;;;2.80;;
40717;SDS011;26405;51.850;-2.246;2022-09-09T05:37:45;8.33;;;2.80;;
40717;SDS011;26405;51.850;-2.246;2022-09-09T05:40:11;6.57;;;2.60;;
40717;SDS011;26405;51.850;-2.246;2022-09-09T05:42:37;6.32;;;2.65;;
40717;SDS011;26405;51.850;-2.246;2022-09-09T05:45:04;6.65;;;2.67;;
40717;SDS011;26405;51.850;-2.246;2022-09-09T05:47:29;7.32;;;2.70;;
40717;SDS011;26405;51.850;-2.246;2022-09-09T05:49:55;7.63;;;2.47;;
40717;SDS011;26405;51.850;-2.246;2022-09-09T05:52:20;8.87;;;2.83;;
40717;SDS011;26405;51.850;-2.246;2022-09-09T05:54:46;9.23;;;2.85;;
40717;SDS011;26405;51.850;-2.246;2022-09-09T05:57:11;7.57;;;2.87;;
40717;SDS011;26405;51.850;-2.246;2022-09-09T05:59:36;6.80;;;2.93;;
40717;SDS011;26405;51.850;-2.246;2022-09-09T06:02:02;6.47;;;2.53;;
40717;SDS011;26405;51.850;-2.246;2022-09-09T06:04:27;8.80;;;2.60;;
40717;SDS011;26405;51.850;-2.246;2022-09-09T06:06:52;6.93;;;2.73;;
40717;SDS011;26405;51.850;-2.246;2022-09-09T06:09:18;8.77;;;2.28;;
40717;SDS011;26405;51.850;-2.246;2022-09-09T06:11:43;8.20;;;2.43;;
40717;SDS011;26405;51.850;-2.246;2022-09-09T06:14:09;7.13;;;2.53;;
40717;SDS011;26405;51.850;-2.246;2022-09-09T06:16:34;8.37;;;2.60;;
40717;SDS011;26405;51.850;-2.246;2022-09-09T06:19:00;7.87;;;2.60;;
40717;SDS011;26405;51.850;-2.246;2022-09-09T06:21:26;8.53;;;2.40;;
40717;SDS011;26405;51.850;-2.246;2022-09-09T06:23:52;6.93;;;2.22;;
40717;SDS011;26405;51.850;-2.246;2022-09-09T06:26:31;6.80;;;2.37;;
40717;SDS011;26405;51.850;-2.246;2022-09-09T06:29:00;6.53;;;2.08;;
40717;SDS011;26405;51.850;-2.246;2022-09-09T06:31:27;8.73;;;2.30;;
40717;SDS011;26405;51.850;-2.246;2022-09-09T06:33:55;4.75;;;1.92;;
40717;SDS011;26405;51.850;-2.246;2022-09-09T06:36:24;10.47;;;2.27;;
40717;SDS011;26405;51.850;-2.246;2022-09-09T06:38:50;11.48;;;2.35;;
40717;SDS011;26405;51.850;-2.246;2022-09-09T06:41:16;10.63;;;2.00;;
40717;SDS011;26405;51.850;-2.246;2022-09-09T06:43:43;6.15;;;2.10;;
40717;SDS011;26405;51.850;-2.246;2022-09-09T06:46:10;5.73;;;2.40;;
40717;SDS011;26405;51.850;-2.246;2022-09-09T06:48:39;7.82;;;2.28;;
40717;SDS011;26405;51.850;-2.246;2022-09-09T06:53:33;4.43;;;1.97;;
40717;SDS011;26405;51.850;-2.246;2022-09-09T06:56:13;5.82;;;2.10;;
40717;SDS011;26405;51.850;-2.246;2022-09-09T06:58:42;5.28;;;1.90;;
40717;SDS011;26405;51.850;-2.246;2022-09-09T07:03:34;7.83;;;2.33;;
40717;SDS011;26405;51.850;-2.246;2022-09-09T07:06:00;6.23;;;2.00;;
40717;SDS011;26405;51.850;-2.246;2022-09-09T07:08:26;6.10;;;2.20;;
40717;SDS011;26405;51.850;-2.246;2022-09-09T07:10:52;8.55;;;2.25;;
40717;SDS011;26405;51.850;-2.246;2022-09-09T07:13:24;5.25;;;2.17;;
40717;SDS011;26405;51.850;-2.246;2022-09-09T07:15:50;5.18;;;2.00;;
40717;SDS011;26405;51.850;-2.246;2022-09-09T07:18:15;5.73;;;1.90;;
40717;SDS011;26405;51.850;-2.246;2022-09-09T07:20:41;3.83;;;1.87;;
40717;SDS011;26405;51.850;-2.246;2022-09-09T07:23:06;9.47;;;2.10;;
40717;SDS011;26405;51.850;-2.246;2022-09-09T07:25:31;6.03;;;2.27;;
40717;SDS011;26405;51.850;-2.246;2022-09-09T07:27:56;7.10;;;1.77;;
40717;SDS011;26405;51.850;-2.246;2022-09-09T07:30:22;4.35;;;1.95;;
40717;SDS011;26405;51.850;-2.246;2022-09-09T07:32:47;7.03;;;2.00;;
40717;SDS011;26405;51.850;-2.246;2022-09-09T07:35:12;3.77;;;1.80;;
40717;SDS011;26405;51.850;-2.246;2022-09-09T07:37:38;4.17;;;1.80;;
40717;SDS011;26405;51.850;-2.246;2022-09-09T07:40:03;5.17;;;1.63;;
40717;SDS011;26405;51.850;-2.246;2022-09-09T07:42:30;4.90;;;2.03;;
40717;SDS011;26405;51.850;-2.246;2022-09-09T07:44:55;3.67;;;2.00;;
40717;SDS011;26405;51.850;-2.246;2022-09-09T07:47:20;6.82;;;2.17;;
40717;SDS011;26405;51.850;-2.246;2022-09-09T07:49:46;2.72;;;1.83;;
40717;SDS011;26405;51.850;-2.246;2022-09-09T07:52:11;5.22;;;1.90;;
40717;SDS011;26405;51.850;-2.246;2022-09-09T07:54:37;7.17;;;2.10;;
40717;SDS011;26405;51.850;-2.246;2022-09-09T07:57:02;4.82;;;1.85;;
40717;SDS011;26405;51.850;-2.246;2022-09-09T07:59:29;5.85;;;1.90;;
40717;SDS011;26405;51.850;-2.246;2022-09-09T08:01:55;2.13;;;1.60;;
40717;SDS011;26405;51.850;-2.246;2022-09-09T08:04:21;4.43;;;2.00;;
40717;SDS011;26405;51.850;-2.246;2022-09-09T08:06:51;3.20;;;1.60;;
40717;SDS011;26405;51.850;-2.246;2022-09-09T08:09:17;5.78;;;2.00;;
40717;SDS011;26405;51.850;-2.246;2022-09-09T08:11:43;4.90;;;1.90;;
40717;SDS011;26405;51.850;-2.246;2022-09-09T08:14:08;3.13;;;1.50;;
40717;SDS011;26405;51.850;-2.246;2022-09-09T08:16:35;6.07;;;2.10;;
40717;SDS011;26405;51.850;-2.246;2022-09-09T08:19:01;4.72;;;1.77;;
40717;SDS011;26405;51.850;-2.246;2022-09-09T08:21:28;5.60;;;1.90;;
40717;SDS011;26405;51.850;-2.246;2022-09-09T08:23:54;5.55;;;1.80;;
40717;SDS011;26405;51.850;-2.246;2022-09-09T08:26:21;6.15;;;1.77;;
40717;SDS011;26405;51.850;-2.246;2022-09-09T08:28:47;4.43;;;1.70;;
40717;SDS011;26405;51.850;-2.246;2022-09-09T08:31:14;3.07;;;1.70;;
40717;SDS011;26405;51.850;-2.246;2022-09-09T08:33:40;5.97;;;1.80;;
40717;SDS011;26405;51.850;-2.246;2022-09-09T08:36:06;5.35;;;1.55;;
40717;SDS011;26405;51.850;-2.246;2022-09-09T08:38:32;5.63;;;1.87;;
40717;SDS011;26405;51.850;-2.246;2022-09-09T08:41:12;5.65;;;1.70;;
40717;SDS011;26405;51.850;-2.246;2022-09-09T08:43:40;3.03;;;1.88;;
40717;SDS011;26405;51.850;-2.246;2022-09-09T08:46:09;4.65;;;1.60;;
40717;SDS011;26405;51.850;-2.246;2022-09-09T08:48:58;3.65;;;1.65;;
40717;SDS011;26405;51.850;-2.246;2022-09-09T08:51:26;2.90;;;1.20;;
40717;SDS011;26405;51.850;-2.246;2022-09-09T08:56:21;3.70;;;1.07;;
40717;SDS011;26405;51.850;-2.246;2022-09-09T08:58:49;1.98;;;1.20;;
40717;SDS011;26405;51.850;-2.246;2022-09-09T09:09:32;3.00;;;1.58;;
40717;SDS011;26405;51.850;-2.246;2022-09-09T09:12:02;4.93;;;1.30;;
40717;SDS011;26405;51.850;-2.246;2022-09-09T09:14:33;1.27;;;1.17;;
40717;SDS011;26405;51.850;-2.246;2022-09-09T09:19:32;1.95;;;1.48;;
40717;SDS011;26405;51.850;-2.246;2022-09-09T09:22:04;2.60;;;1.15;;
40717;SDS011;26405;51.850;-2.246;2022-09-09T09:27:11;1.90;;;1.27;;
40717;SDS011;26405;51.850;-2.246;2022-09-09T09:29:37;1.58;;;1.40;;
40717;SDS011;26405;51.850;-2.246;2022-09-09T09:32:03;4.67;;;1.63;;
40717;SDS011;26405;51.850;-2.246;2022-09-09T09:34:28;2.20;;;1.57;;
40717;SDS011;26405;51.850;-2.246;2022-09-09T09:36:57;2.20;;;1.53;;
40717;SDS011;26405;51.850;-2.246;2022-09-09T09:41:48;5.37;;;2.17;;
40717;SDS011;26405;51.850;-2.246;2022-09-09T09:46:49;3.85;;;1.88;;
40717;SDS011;26405;51.850;-2.246;2022-09-09T09:49:17;2.60;;;1.50;;
40717;SDS011;26405;51.850;-2.246;2022-09-09T09:51:45;2.33;;;1.60;;
40717;SDS011;26405;51.850;-2.246;2022-09-09T09:56:46;4.70;;;1.38;;
40717;SDS011;26405;51.850;-2.246;2022-09-09T09:59:22;4.57;;;1.52;;
40717;SDS011;26405;51.850;-2.246;2022-09-09T10:01:50;1.85;;;1.40;;
40717;SDS011;26405;51.850;-2.246;2022-09-09T10:04:17;5.27;;;1.30;;
40717;SDS011;26405;51.850;-2.246;2022-09-09T10:06:43;4.00;;;1.38;;
40717;SDS011;26405;51.850;-2.246;2022-09-09T10:09:25;3.30;;;1.30;;
40717;SDS011;26405;51.850;-2.246;2022-09-09T10:14:29;1.25;;;1.13;;
40717;SDS011;26405;51.850;-2.246;2022-09-09T10:19:31;2.77;;;1.20;;
40717;SDS011;26405;51.850;-2.246;2022-09-09T10:22:02;1.60;;;1.20;;
40717;SDS011;26405;51.850;-2.246;2022-09-09T10:27:20;4.38;;;1.40;;
40717;SDS011;26405;51.850;-2.246;2022-09-09T10:32:40;4.28;;;1.52;;
40717;SDS011;26405;51.850;-2.246;2022-09-09T10:35:29;2.25;;;1.40;;
40717;SDS011;26405;51.850;-2.246;2022-09-09T10:40:33;1.85;;;1.27;;
40717;SDS011;26405;51.850;-2.246;2022-09-09T10:43:13;3.63;;;1.40;;
40717;SDS011;26405;51.850;-2.246;2022-09-09T10:48:31;1.98;;;1.55;;
40717;SDS011;26405;51.850;-2.246;2022-09-09T10:51:07;1.50;;;1.40;;
40717;SDS011;26405;51.850;-2.246;2022-09-09T10:56:11;1.50;;;1.40;;
40717;SDS011;26405;51.850;-2.246;2022-09-09T11:01:06;5.73;;;1.30;;
40717;SDS011;26405;51.850;-2.246;2022-09-09T11:03:35;1.58;;;1.40;;
40717;SDS011;26405;51.850;-2.246;2022-09-09T11:06:05;1.58;;;1.20;;
40717;SDS011;26405;51.850;-2.246;2022-09-09T11:08:31;5.18;;;1.40;;
40717;SDS011;26405;51.850;-2.246;2022-09-09T11:18:57;2.33;;;1.50;;
40717;SDS011;26405;51.850;-2.246;2022-09-09T11:21:25;1.30;;;1.20;;
40717;SDS011;26405;51.850;-2.246;2022-09-09T11:23:58;2.55;;;1.48;;
40717;SDS011;26405;51.850;-2.246;2022-09-09T11:26:29;1.20;;;1.10;;
40717;SDS011;26405;51.850;-2.246;2022-09-09T11:31:52;3.35;;;1.20;;
40717;SDS011;26405;51.850;-2.246;2022-09-09T11:34:31;1.25;;;1.25;;
40717;SDS011;26405;51.850;-2.246;2022-09-09T11:37:06;1.55;;;1.35;;
40717;SDS011;26405;51.850;-2.246;2022-09-09T11:39:37;1.85;;;1.42;;
40717;SDS011;26405;51.850;-2.246;2022-09-09T11:42:18;3.97;;;1.40;;
40717;SDS011;26405;51.850;-2.246;2022-09-09T11:44:43;6.00;;;1.95;;
40717;SDS011;26405;51.850;-2.246;2022-09-09T11:47:19;1.30;;;1.20;;
40717;SDS011;26405;51.850;-2.246;2022-09-09T11:49:46;2.42;;;1.42;;
40717;SDS011;26405;51.850;-2.246;2022-09-09T11:54:47;4.15;;;1.60;;
40717;SDS011;26405;51.850;-2.246;2022-09-09T11:57:24;3.80;;;1.58;;
40717;SDS011;26405;51.850;-2.246;2022-09-09T11:59:50;4.68;;;1.80;;
40717;SDS011;26405;51.850;-2.246;2022-09-09T12:02:19;2.47;;;1.50;;
40717;SDS011;26405;51.850;-2.246;2022-09-09T12:05:06;5.65;;;1.73;;
40717;SDS011;26405;51.850;-2.246;2022-09-09T12:07:34;2.88;;;1.40;;
40717;SDS011;26405;51.850;-2.246;2022-09-09T12:10:03;1.30;;;1.20;;
40717;SDS011;26405;51.850;-2.246;2022-09-09T12:12:32;1.10;;;1.08;;
40717;SDS011;26405;51.850;-2.246;2022-09-09T12:17:37;3.53;;;1.50;;
40717;SDS011;26405;51.850;-2.246;2022-09-09T12:30:49;4.20;;;1.77;;
40717;SDS011;26405;51.850;-2.246;2022-09-09T12:33:17;2.00;;;1.55;;
40717;SDS011;26405;51.850;-2.246;2022-09-09T12:35:56;1.27;;;1.15;;
40717;SDS011;26405;51.850;-2.246;2022-09-09T12:38:26;3.35;;;1.30;;
40717;SDS011;26405;51.850;-2.246;2022-09-09T12:40:55;1.50;;;1.40;;
40717;SDS011;26405;51.850;-2.246;2022-09-09T12:43:22;1.33;;;1.20;;
40717;SDS011;26405;51.850;-2.246;2022-09-09T12:45:48;4.63;;;1.60;;
40717;SDS011;26405;51.850;-2.246;2022-09-09T12:48:15;2.35;;;1.40;;
40717;SDS011;26405;51.850;-2.246;2022-09-09T12:50:49;3.03;;;1.45;;
40717;SDS011;26405;51.850;-2.246;2022-09-09T12:53:22;3.35;;;2.00;;
40717;SDS011;26405;51.850;-2.246;2022-09-09T12:55:59;7.97;;;3.28;;
40717;SDS011;26405;51.850;-2.246;2022-09-09T12:58:24;6.57;;;3.60;;
40717;SDS011;26405;51.850;-2.246;2022-09-09T13:00:51;6.53;;;3.40;;
40717;SDS011;26405;51.850;-2.246;2022-09-09T13:03:18;5.20;;;2.38;;
40717;SDS011;26405;51.850;-2.246;2022-09-09T13:05:45;3.90;;;2.13;;
40717;SDS011;26405;51.850;-2.246;2022-09-09T13:08:12;2.05;;;1.70;;
40717;SDS011;26405;51.850;-2.246;2022-09-09T13:10:39;1.53;;;1.43;;
40717;SDS011;26405;51.850;-2.246;2022-09-09T13:13:11;3.67;;;1.63;;
40717;SDS011;26405;51.850;-2.246;2022-09-09T13:15:38;5.30;;;2.60;;
40717;SDS011;26405;51.850;-2.246;2022-09-09T13:18:04;3.93;;;1.90;;
40717;SDS011;26405;51.850;-2.246;2022-09-09T13:20:31;3.22;;;1.40;;
40717;SDS011;26405;51.850;-2.246;2022-09-09T13:22:56;4.57;;;1.50;;
40717;SDS011;26405;51.850;-2.246;2022-09-09T13:25:26;1.63;;;1.35;;
40717;SDS011;26405;51.850;-2.246;2022-09-09T13:35:34;1.83;;;1.60;;
40717;SDS011;26405;51.850;-2.246;2022-09-09T13:40:25;4.37;;;1.50;;
40717;SDS011;26405;51.850;-2.246;2022-09-09T13:42:52;2.77;;;1.33;;
40717;SDS011;26405;51.850;-2.246;2022-09-09T13:45:18;3.22;;;1.60;;
40717;SDS011;26405;51.850;-2.246;2022-09-09T13:47:47;2.17;;;1.20;;
40717;SDS011;26405;51.850;-2.246;2022-09-09T13:50:29;3.78;;;1.50;;
40717;SDS011;26405;51.850;-2.246;2022-09-09T13:52:56;1.50;;;1.40;;
40717;SDS011;26405;51.850;-2.246;2022-09-09T13:55:23;1.38;;;1.20;;
40717;SDS011;26405;51.850;-2.246;2022-09-09T13:57:59;3.45;;;1.25;;
40717;SDS011;26405;51.850;-2.246;2022-09-09T14:00:33;1.60;;;1.50;;
40717;SDS011;26405;51.850;-2.246;2022-09-09T14:02:59;1.63;;;1.50;;
40717;SDS011;26405;51.850;-2.246;2022-09-09T14:05:27;3.60;;;1.52;;
40717;SDS011;26405;51.850;-2.246;2022-09-09T14:07:53;2.87;;;1.77;;
40717;SDS011;26405;51.850;-2.246;2022-09-09T14:10:19;4.90;;;1.20;;
40717;SDS011;26405;51.850;-2.246;2022-09-09T14:12:44;4.43;;;1.67;;
40717;SDS011;26405;51.850;-2.246;2022-09-09T14:15:09;2.20;;;1.57;;
40717;SDS011;26405;51.850;-2.246;2022-09-09T14:17:35;1.50;;;1.40;;
40717;SDS011;26405;51.850;-2.246;2022-09-09T14:20:01;2.37;;;1.60;;
40717;SDS011;26405;51.850;-2.246;2022-09-09T14:22:27;2.97;;;1.40;;
40717;SDS011;26405;51.850;-2.246;2022-09-09T14:24:53;3.50;;;1.48;;
40717;SDS011;26405;51.850;-2.246;2022-09-09T14:27:18;2.43;;;1.63;;
40717;SDS011;26405;51.850;-2.246;2022-09-09T14:29:44;1.40;;;1.30;;
40717;SDS011;26405;51.850;-2.246;2022-09-09T14:32:10;3.10;;;1.63;;
40717;SDS011;26405;51.850;-2.246;2022-09-09T14:34:35;3.43;;;1.60;;
40717;SDS011;26405;51.850;-2.246;2022-09-09T14:37:01;2.00;;;1.70;;
40717;SDS011;26405;51.850;-2.246;2022-09-09T14:39:26;2.33;;;1.47;;
40717;SDS011;26405;51.850;-2.246;2022-09-09T14:41:52;3.57;;;1.50;;
40717;SDS011;26405;51.850;-2.246;2022-09-09T14:44:17;1.53;;;1.40;;
40717;SDS011;26405;51.850;-2.246;2022-09-09T14:46:43;2.35;;;1.63;;
40717;SDS011;26405;51.850;-2.246;2022-09-09T14:49:09;2.73;;;1.73;;
40717;SDS011;26405;51.850;-2.246;2022-09-09T14:51:35;4.80;;;1.70;;
40717;SDS011;26405;51.850;-2.246;2022-09-09T14:54:00;3.03;;;1.50;;
40717;SDS011;26405;51.850;-2.246;2022-09-09T14:56:27;2.45;;;1.55;;
40717;SDS011;26405;51.850;-2.246;2022-09-09T14:58:54;4.00;;;1.77;;
40717;SDS011;26405;51.850;-2.246;2022-09-09T15:01:20;3.00;;;1.73;;
40717;SDS011;26405;51.850;-2.246;2022-09-09T15:03:54;2.07;;;1.50;;
40717;SDS011;26405;51.850;-2.246;2022-09-09T15:06:20;3.38;;;1.48;;
40717;SDS011;26405;51.850;-2.246;2022-09-09T15:08:45;3.13;;;1.70;;
40717;SDS011;26405;51.850;-2.246;2022-09-09T15:11:11;1.70;;;1.40;;
40717;SDS011;26405;51.850;-2.246;2022-09-09T15:13:37;2.97;;;1.20;;
40717;SDS011;26405;51.850;-2.246;2022-09-09T15:16:03;3.47;;;1.23;;
40717;SDS011;26405;51.850;-2.246;2022-09-09T15:18:28;1.65;;;1.55;;
40717;SDS011;26405;51.850;-2.246;2022-09-09T15:20:54;2.60;;;1.83;;
40717;SDS011;26405;51.850;-2.246;2022-09-09T15:23:19;2.33;;;1.13;;
40717;SDS011;26405;51.850;-2.246;2022-09-09T15:25:54;1.80;;;1.40;;
40717;SDS011;26405;51.850;-2.246;2022-09-09T15:28:20;3.63;;;1.60;;
40717;SDS011;26405;51.850;-2.246;2022-09-09T15:30:49;1.80;;;1.70;;
40717;SDS011;26405;51.850;-2.246;2022-09-09T15:33:14;1.75;;;1.60;;
40717;SDS011;26405;51.850;-2.246;2022-09-09T15:35:40;3.53;;;1.33;;
40717;SDS011;26405;51.850;-2.246;2022-09-09T15:38:05;2.00;;;1.57;;
40717;SDS011;26405;51.850;-2.246;2022-09-09T15:40:32;2.40;;;1.73;;
40717;SDS011;26405;51.850;-2.246;2022-09-09T15:42:58;3.40;;;1.67;;
40717;SDS011;26405;51.850;-2.246;2022-09-09T15:45:23;3.93;;;1.50;;
40717;SDS011;26405;51.850;-2.246;2022-09-09T15:47:49;1.53;;;1.43;;
40717;SDS011;26405;51.850;-2.246;2022-09-09T15:50:14;1.40;;;1.30;;
40717;SDS011;26405;51.850;-2.246;2022-09-09T15:52:39;3.43;;;1.50;;
40717;SDS011;26405;51.850;-2.246;2022-09-09T15:55:05;1.50;;;1.40;;
40717;SDS011;26405;51.850;-2.246;2022-09-09T15:57:30;2.50;;;1.20;;
40717;SDS011;26405;51.850;-2.246;2022-09-09T15:59:55;1.50;;;1.40;;
40717;SDS011;26405;51.850;-2.246;2022-09-09T16:02:21;1.60;;;1.50;;
40717;SDS011;26405;51.850;-2.246;2022-09-09T16:04:46;2.13;;;1.27;;
40717;SDS011;26405;51.850;-2.246;2022-09-09T16:07:11;2.43;;;1.40;;
40717;SDS011;26405;51.850;-2.246;2022-09-09T16:09:37;1.60;;;1.50;;
40717;SDS011;26405;51.850;-2.246;2022-09-09T16:12:03;3.23;;;1.40;;
40717;SDS011;26405;51.850;-2.246;2022-09-09T16:14:31;1.60;;;1.50;;
40717;SDS011;26405;51.850;-2.246;2022-09-09T16:16:59;2.15;;;1.70;;
40717;SDS011;26405;51.850;-2.246;2022-09-09T16:19:24;2.97;;;1.60;;
40717;SDS011;26405;51.850;-2.246;2022-09-09T16:21:52;1.25;;;1.25;;
40717;SDS011;26405;51.850;-2.246;2022-09-09T16:24:18;1.77;;;1.30;;
40717;SDS011;26405;51.850;-2.246;2022-09-09T16:26:44;2.15;;;1.40;;
40717;SDS011;26405;51.850;-2.246;2022-09-09T16:31:35;3.40;;;1.70;;
40717;SDS011;26405;51.850;-2.246;2022-09-09T16:34:00;3.53;;;1.60;;
40717;SDS011;26405;51.850;-2.246;2022-09-09T16:36:30;1.60;;;1.50;;
40717;SDS011;26405;51.850;-2.246;2022-09-09T16:38:56;2.75;;;1.63;;
40717;SDS011;26405;51.850;-2.246;2022-09-09T16:41:22;1.52;;;1.42;;
40717;SDS011;26405;51.850;-2.246;2022-09-09T16:43:47;3.07;;;1.50;;
40717;SDS011;26405;51.850;-2.246;2022-09-09T16:46:17;1.40;;;1.30;;
40717;SDS011;26405;51.850;-2.246;2022-09-09T16:48:43;1.55;;;1.45;;
40717;SDS011;26405;51.850;-2.246;2022-09-09T16:51:11;1.60;;;1.50;;
40717;SDS011;26405;51.850;-2.246;2022-09-09T16:53:39;2.17;;;1.63;;
40717;SDS011;26405;51.850;-2.246;2022-09-09T16:56:05;3.30;;;1.37;;
40717;SDS011;26405;51.850;-2.246;2022-09-09T17:00:59;1.45;;;1.35;;
40717;SDS011;26405;51.850;-2.246;2022-09-09T17:03:24;2.40;;;1.70;;